sensor_id;sensor_type;location;lat;lon;timestamp;temperature;humidity
12303;DHT22;6214;48.012;7.862;2023-02-28T00:00:38;2.30;99.90
12303;DHT22;6214;48.012;7.862;2023-02-28T00:03:05;2.40;99.90
12303;DHT22;6214;48.012;7.862;2023-02-28T00:05:33;2.50;99.90
12303;DHT22;6214;48.012;7.862;2023-02-28T00:08:00;2.50;99.90
12303;DHT22;6214;48.012;7.862;2023-02-28T00:10:29;2.50;99.90
12303;DHT22;6214;48.012;7.862;2023-02-28T00:13:01;2.40;99.90
12303;DHT22;6214;48.012;7.862;2023-02-28T00:15:28;2.40;99.90
12303;DHT22;6214;48.012;7.862;2023-02-28T00:17:55;2.50;99.90
12303;DHT22;6214;48.012;7.862;2023-02-28T00:20:22;2.40;99.90
12303;DHT22;6214;48.012;7.862;2023-02-28T00:22:51;2.40;99.90
12303;DHT22;6214;48.012;7.862;2023-02-28T00:25:21;2.50;99.90
12303;DHT22;6214;48.012;7.862;2023-02-28T00:27:48;2.60;99.90
12303;DHT22;6214;48.012;7.862;2023-02-28T00:30:21;2.50;99.90
12303;DHT22;6214;48.012;7.862;2023-02-28T00:32:49;2.50;99.90
12303;DHT22;6214;48.012;7.862;2023-02-28T00:35:16;2.60;99.90
12303;DHT22;6214;48.012;7.862;2023-02-28T00:37:43;2.60;99.90
12303;DHT22;6214;48.012;7.862;2023-02-28T00:40:11;2.70;99.90
12303;DHT22;6214;48.012;7.862;2023-02-28T00:42:39;2.70;99.90
12303;DHT22;6214;48.012;7.862;2023-02-28T00:45:06;2.70;99.90
12303;DHT22;6214;48.012;7.862;2023-02-28T00:47:35;2.70;99.90
12303;DHT22;6214;48.012;7.862;2023-02-28T00:50:02;2.70;99.90
12303;DHT22;6214;48.012;7.862;2023-02-28T00:52:29;2.60;99.90
12303;DHT22;6214;48.012;7.862;2023-02-28T00:54:56;2.60;99.90
12303;DHT22;6214;48.012;7.862;2023-02-28T00:57:23;2.70;99.90
12303;DHT22;6214;48.012;7.862;2023-02-28T00:59:50;2.70;99.90
12303;DHT22;6214;48.012;7.862;2023-02-28T01:02:17;2.60;99.90
12303;DHT22;6214;48.012;7.862;2023-02-28T01:04:44;2.60;99.90
12303;DHT22;6214;48.012;7.862;2023-02-28T01:07:11;2.60;99.90
12303;DHT22;6214;48.012;7.862;2023-02-28T01:09:38;2.60;99.90
12303;DHT22;6214;48.012;7.862;2023-02-28T01:12:06;2.60;99.90
12303;DHT22;6214;48.012;7.862;2023-02-28T01:14:34;2.50;99.90
12303;DHT22;6214;48.012;7.862;2023-02-28T01:17:01;2.70;99.90
12303;DHT22;6214;48.012;7.862;2023-02-28T01:19:28;2.70;99.90
12303;DHT22;6214;48.012;7.862;2023-02-28T01:21:55;2.60;99.90
12303;DHT22;6214;48.012;7.862;2023-02-28T01:24:22;2.70;99.90
12303;DHT22;6214;48.012;7.862;2023-02-28T01:26:49;2.50;99.90
12303;DHT22;6214;48.012;7.862;2023-02-28T01:29:16;2.60;99.90
12303;DHT22;6214;48.012;7.862;2023-02-28T01:31:42;2.50;99.90
12303;DHT22;6214;48.012;7.862;2023-02-28T01:34:09;2.60;99.90
12303;DHT22;6214;48.012;7.862;2023-02-28T01:36:36;2.50;99.90
12303;DHT22;6214;48.012;7.862;2023-02-28T01:39:04;2.70;99.90
12303;DHT22;6214;48.012;7.862;2023-02-28T01:41:33;2.70;99.90
12303;DHT22;6214;48.012;7.862;2023-02-28T01:46:35;2.60;99.90
12303;DHT22;6214;48.012;7.862;2023-02-28T01:49:11;2.50;99.90
12303;DHT22;6214;48.012;7.862;2023-02-28T01:51:45;2.60;99.90
12303;DHT22;6214;48.012;7.862;2023-02-28T01:54:24;2.40;99.90
12303;DHT22;6214;48.012;7.862;2023-02-28T01:57:01;2.40;99.90
12303;DHT22;6214;48.012;7.862;2023-02-28T01:59:35;2.40;99.90
12303;DHT22;6214;48.012;7.862;2023-02-28T02:02:04;2.30;99.90
12303;DHT22;6214;48.012;7.862;2023-02-28T02:04:38;2.40;99.90
12303;DHT22;6214;48.012;7.862;2023-02-28T02:07:09;2.50;99.90
12303;DHT22;6214;48.012;7.862;2023-02-28T02:09:36;2.50;99.90
12303;DHT22;6214;48.012;7.862;2023-02-28T02:12:38;2.40;99.90
12303;DHT22;6214;48.012;7.862;2023-02-28T02:17:45;2.40;99.90
12303;DHT22;6214;48.012;7.862;2023-02-28T02:25:47;2.50;99.90
12303;DHT22;6214;48.012;7.862;2023-02-28T02:28:43;2.60;99.90
12303;DHT22;6214;48.012;7.862;2023-02-28T02:39:58;2.40;99.90
12303;DHT22;6214;48.012;7.862;2023-02-28T02:42:50;2.40;99.90
12303;DHT22;6214;48.012;7.862;2023-02-28T02:45:24;2.40;99.90
12303;DHT22;6214;48.012;7.862;2023-02-28T02:47:53;2.50;99.90
12303;DHT22;6214;48.012;7.862;2023-02-28T02:50:30;2.60;99.90
12303;DHT22;6214;48.012;7.862;2023-02-28T02:53:00;2.50;99.90
12303;DHT22;6214;48.012;7.862;2023-02-28T02:55:31;2.60;99.90
12303;DHT22;6214;48.012;7.862;2023-02-28T02:58:03;2.50;99.90
12303;DHT22;6214;48.012;7.862;2023-02-28T03:00:35;2.60;99.90
12303;DHT22;6214;48.012;7.862;2023-02-28T03:03:04;2.70;99.90
12303;DHT22;6214;48.012;7.862;2023-02-28T03:05:46;2.50;99.90
12303;DHT22;6214;48.012;7.862;2023-02-28T03:08:14;2.50;99.90
12303;DHT22;6214;48.012;7.862;2023-02-28T03:10:46;2.50;99.90
12303;DHT22;6214;48.012;7.862;2023-02-28T03:27:29;2.40;99.90
12303;DHT22;6214;48.012;7.862;2023-02-28T03:30:22;2.30;99.90
12303;DHT22;6214;48.012;7.862;2023-02-28T03:33:11;2.40;99.90
12303;DHT22;6214;48.012;7.862;2023-02-28T03:35:47;2.30;99.90
12303;DHT22;6214;48.012;7.862;2023-02-28T03:38:42;2.30;99.90
12303;DHT22;6214;48.012;7.862;2023-02-28T03:44:30;2.30;99.90
12303;DHT22;6214;48.012;7.862;2023-02-28T03:47:21;2.30;99.90
12303;DHT22;6214;48.012;7.862;2023-02-28T03:52:29;2.40;99.90
12303;DHT22;6214;48.012;7.862;2023-02-28T03:55:02;2.30;99.90
12303;DHT22;6214;48.012;7.862;2023-02-28T03:57:56;2.30;99.90
12303;DHT22;6214;48.012;7.862;2023-02-28T04:00:31;2.20;99.90
12303;DHT22;6214;48.012;7.862;2023-02-28T04:03:01;2.20;99.90
12303;DHT22;6214;48.012;7.862;2023-02-28T04:05:29;2.20;99.90
12303;DHT22;6214;48.012;7.862;2023-02-28T04:08:07;2.10;99.90
12303;DHT22;6214;48.012;7.862;2023-02-28T04:10:34;2.20;99.90
12303;DHT22;6214;48.012;7.862;2023-02-28T04:13:01;2.20;99.90
12303;DHT22;6214;48.012;7.862;2023-02-28T04:15:28;2.20;99.90
12303;DHT22;6214;48.012;7.862;2023-02-28T04:17:55;2.10;99.90
12303;DHT22;6214;48.012;7.862;2023-02-28T04:20:22;2.20;99.90
12303;DHT22;6214;48.012;7.862;2023-02-28T04:22:49;2.20;99.90
12303;DHT22;6214;48.012;7.862;2023-02-28T04:25:16;2.20;99.90
12303;DHT22;6214;48.012;7.862;2023-02-28T04:27:43;2.20;99.90
12303;DHT22;6214;48.012;7.862;2023-02-28T04:30:11;2.30;99.90
12303;DHT22;6214;48.012;7.862;2023-02-28T04:32:38;2.40;99.90
12303;DHT22;6214;48.012;7.862;2023-02-28T04:35:06;2.40;99.90
12303;DHT22;6214;48.012;7.862;2023-02-28T04:37:33;2.40;99.90
12303;DHT22;6214;48.012;7.862;2023-02-28T04:40:02;2.30;99.90
12303;DHT22;6214;48.012;7.862;2023-02-28T04:42:29;2.10;99.90
12303;DHT22;6214;48.012;7.862;2023-02-28T04:45:03;2.00;99.90
12303;DHT22;6214;48.012;7.862;2023-02-28T04:47:30;1.90;99.90
12303;DHT22;6214;48.012;7.862;2023-02-28T04:49:57;1.80;99.90
12303;DHT22;6214;48.012;7.862;2023-02-28T04:52:24;1.80;99.90
12303;DHT22;6214;48.012;7.862;2023-02-28T04:54:51;1.70;99.90
12303;DHT22;6214;48.012;7.862;2023-02-28T04:57:18;1.70;99.90
12303;DHT22;6214;48.012;7.862;2023-02-28T04:59:45;1.70;99.90
12303;DHT22;6214;48.012;7.862;2023-02-28T05:02:12;1.60;99.90
12303;DHT22;6214;48.012;7.862;2023-02-28T05:04:39;1.50;99.90
12303;DHT22;6214;48.012;7.862;2023-02-28T05:07:06;1.50;99.90
12303;DHT22;6214;48.012;7.862;2023-02-28T05:09:33;1.50;99.90
12303;DHT22;6214;48.012;7.862;2023-02-28T05:12:00;1.40;99.90
12303;DHT22;6214;48.012;7.862;2023-02-28T05:14:27;1.50;99.90
12303;DHT22;6214;48.012;7.862;2023-02-28T05:16:54;1.40;99.90
12303;DHT22;6214;48.012;7.862;2023-02-28T05:19:21;1.40;99.90
12303;DHT22;6214;48.012;7.862;2023-02-28T05:21:51;1.40;99.90
12303;DHT22;6214;48.012;7.862;2023-02-28T05:24:19;1.40;99.90
12303;DHT22;6214;48.012;7.862;2023-02-28T05:26:51;1.30;99.90
12303;DHT22;6214;48.012;7.862;2023-02-28T05:29:18;1.40;99.90
12303;DHT22;6214;48.012;7.862;2023-02-28T05:31:46;1.30;99.90
12303;DHT22;6214;48.012;7.862;2023-02-28T05:34:13;1.30;99.90
12303;DHT22;6214;48.012;7.862;2023-02-28T05:36:42;1.30;99.90
12303;DHT22;6214;48.012;7.862;2023-02-28T05:39:09;1.30;99.90
12303;DHT22;6214;48.012;7.862;2023-02-28T05:41:41;1.20;99.90
12303;DHT22;6214;48.012;7.862;2023-02-28T05:44:08;1.20;99.90
12303;DHT22;6214;48.012;7.862;2023-02-28T05:46:35;1.20;99.90
12303;DHT22;6214;48.012;7.862;2023-02-28T05:49:02;1.20;99.90
12303;DHT22;6214;48.012;7.862;2023-02-28T05:51:29;1.10;99.90
12303;DHT22;6214;48.012;7.862;2023-02-28T05:54:00;1.10;99.90
12303;DHT22;6214;48.012;7.862;2023-02-28T05:56:28;1.00;99.90
12303;DHT22;6214;48.012;7.862;2023-02-28T05:58:55;1.00;99.90
12303;DHT22;6214;48.012;7.862;2023-02-28T06:04:03;0.90;99.90
12303;DHT22;6214;48.012;7.862;2023-02-28T06:06:30;0.80;99.90
12303;DHT22;6214;48.012;7.862;2023-02-28T06:08:57;0.70;99.90
12303;DHT22;6214;48.012;7.862;2023-02-28T06:11:25;0.60;99.90
12303;DHT22;6214;48.012;7.862;2023-02-28T06:13:56;0.70;99.90
12303;DHT22;6214;48.012;7.862;2023-02-28T06:16:24;0.70;99.90
12303;DHT22;6214;48.012;7.862;2023-02-28T06:18:53;0.70;99.90
12303;DHT22;6214;48.012;7.862;2023-02-28T06:21:22;0.70;99.90
12303;DHT22;6214;48.012;7.862;2023-02-28T06:23:50;0.60;99.90
12303;DHT22;6214;48.012;7.862;2023-02-28T06:26:17;0.70;99.90
12303;DHT22;6214;48.012;7.862;2023-02-28T06:28:44;0.60;99.90
12303;DHT22;6214;48.012;7.862;2023-02-28T06:31:13;0.70;99.90
12303;DHT22;6214;48.012;7.862;2023-02-28T06:33:42;0.60;99.90
12303;DHT22;6214;48.012;7.862;2023-02-28T06:36:11;0.70;99.90
12303;DHT22;6214;48.012;7.862;2023-02-28T06:38:39;0.70;99.90
12303;DHT22;6214;48.012;7.862;2023-02-28T06:41:06;0.70;99.90
12303;DHT22;6214;48.012;7.862;2023-02-28T06:43:37;0.80;99.90
12303;DHT22;6214;48.012;7.862;2023-02-28T06:46:07;0.80;99.90
12303;DHT22;6214;48.012;7.862;2023-02-28T06:48:35;0.90;99.90
12303;DHT22;6214;48.012;7.862;2023-02-28T06:51:07;0.90;99.90
12303;DHT22;6214;48.012;7.862;2023-02-28T06:53:35;1.10;99.90
12303;DHT22;6214;48.012;7.862;2023-02-28T06:56:07;1.00;99.90
12303;DHT22;6214;48.012;7.862;2023-02-28T06:58:35;1.00;99.90
12303;DHT22;6214;48.012;7.862;2023-02-28T07:01:02;0.90;99.90
12303;DHT22;6214;48.012;7.862;2023-02-28T07:03:30;1.00;99.90
12303;DHT22;6214;48.012;7.862;2023-02-28T07:06:00;1.00;99.90
12303;DHT22;6214;48.012;7.862;2023-02-28T07:08:27;1.10;99.90
12303;DHT22;6214;48.012;7.862;2023-02-28T07:10:55;1.10;99.90
12303;DHT22;6214;48.012;7.862;2023-02-28T07:13:23;1.20;99.90
12303;DHT22;6214;48.012;7.862;2023-02-28T07:15:54;1.30;99.90
12303;DHT22;6214;48.012;7.862;2023-02-28T07:18:22;1.30;99.90
12303;DHT22;6214;48.012;7.862;2023-02-28T07:20:49;1.40;99.90
12303;DHT22;6214;48.012;7.862;2023-02-28T07:23:17;1.50;99.90
12303;DHT22;6214;48.012;7.862;2023-02-28T07:25:44;1.40;99.90
12303;DHT22;6214;48.012;7.862;2023-02-28T07:28:13;1.40;99.90
12303;DHT22;6214;48.012;7.862;2023-02-28T07:30:41;1.30;99.90
12303;DHT22;6214;48.012;7.862;2023-02-28T07:33:10;1.40;99.90
12303;DHT22;6214;48.012;7.862;2023-02-28T07:35:37;1.40;99.90
12303;DHT22;6214;48.012;7.862;2023-02-28T07:38:04;1.60;99.90
12303;DHT22;6214;48.012;7.862;2023-02-28T07:40:31;1.60;99.90
12303;DHT22;6214;48.012;7.862;2023-02-28T07:42:59;1.80;99.90
12303;DHT22;6214;48.012;7.862;2023-02-28T07:45:27;2.00;99.90
12303;DHT22;6214;48.012;7.862;2023-02-28T07:47:58;2.20;99.90
12303;DHT22;6214;48.012;7.862;2023-02-28T07:50:25;2.20;99.90
12303;DHT22;6214;48.012;7.862;2023-02-28T07:52:52;2.10;99.90
12303;DHT22;6214;48.012;7.862;2023-02-28T07:55:19;2.20;99.90
12303;DHT22;6214;48.012;7.862;2023-02-28T07:57:46;2.40;99.90
12303;DHT22;6214;48.012;7.862;2023-02-28T08:00:13;2.60;99.90
12303;DHT22;6214;48.012;7.862;2023-02-28T08:02:41;2.70;99.90
12303;DHT22;6214;48.012;7.862;2023-02-28T08:05:08;2.60;99.90
12303;DHT22;6214;48.012;7.862;2023-02-28T08:07:35;2.80;99.90
12303;DHT22;6214;48.012;7.862;2023-02-28T08:10:02;3.20;99.90
12303;DHT22;6214;48.012;7.862;2023-02-28T08:12:32;3.40;99.90
12303;DHT22;6214;48.012;7.862;2023-02-28T08:14:59;3.40;99.90
12303;DHT22;6214;48.012;7.862;2023-02-28T08:17:26;3.60;99.90
12303;DHT22;6214;48.012;7.862;2023-02-28T08:19:53;3.50;99.90
12303;DHT22;6214;48.012;7.862;2023-02-28T08:22:20;3.60;99.90
12303;DHT22;6214;48.012;7.862;2023-02-28T08:24:47;3.80;99.90
12303;DHT22;6214;48.012;7.862;2023-02-28T08:27:14;3.90;99.90
12303;DHT22;6214;48.012;7.862;2023-02-28T08:29:41;4.00;99.90
12303;DHT22;6214;48.012;7.862;2023-02-28T08:32:08;3.90;99.90
12303;DHT22;6214;48.012;7.862;2023-02-28T08:34:54;3.90;99.90
12303;DHT22;6214;48.012;7.862;2023-02-28T08:37:21;4.10;99.90
12303;DHT22;6214;48.012;7.862;2023-02-28T08:39:48;4.10;99.90
12303;DHT22;6214;48.012;7.862;2023-02-28T08:42:15;4.30;99.90
12303;DHT22;6214;48.012;7.862;2023-02-28T08:44:42;4.10;99.90
12303;DHT22;6214;48.012;7.862;2023-02-28T08:47:09;4.20;99.90
12303;DHT22;6214;48.012;7.862;2023-02-28T08:49:36;4.30;99.90
12303;DHT22;6214;48.012;7.862;2023-02-28T08:52:04;4.30;99.90
12303;DHT22;6214;48.012;7.862;2023-02-28T08:54:31;4.40;99.90
12303;DHT22;6214;48.012;7.862;2023-02-28T08:57:00;4.70;99.90
12303;DHT22;6214;48.012;7.862;2023-02-28T08:59:27;5.10;99.90
12303;DHT22;6214;48.012;7.862;2023-02-28T09:01:54;5.40;99.90
12303;DHT22;6214;48.012;7.862;2023-02-28T09:04:21;5.90;99.90
12303;DHT22;6214;48.012;7.862;2023-02-28T09:06:50;6.10;99.90
12303;DHT22;6214;48.012;7.862;2023-02-28T09:09:17;6.80;99.90
12303;DHT22;6214;48.012;7.862;2023-02-28T09:11:44;7.30;99.90
12303;DHT22;6214;48.012;7.862;2023-02-28T09:14:11;7.90;99.90
12303;DHT22;6214;48.012;7.862;2023-02-28T09:16:38;8.60;99.90
12303;DHT22;6214;48.012;7.862;2023-02-28T09:19:06;8.60;99.90
12303;DHT22;6214;48.012;7.862;2023-02-28T09:21:33;8.70;99.90
12303;DHT22;6214;48.012;7.862;2023-02-28T09:24:00;10.30;99.90
12303;DHT22;6214;48.012;7.862;2023-02-28T09:26:27;12.30;99.90
12303;DHT22;6214;48.012;7.862;2023-02-28T09:29:08;12.20;97.50
12303;DHT22;6214;48.012;7.862;2023-02-28T09:31:35;12.40;97.30
12303;DHT22;6214;48.012;7.862;2023-02-28T09:34:04;13.30;96.50
12303;DHT22;6214;48.012;7.862;2023-02-28T09:36:31;14.60;94.70
12303;DHT22;6214;48.012;7.862;2023-02-28T09:39:10;14.20;91.70
12303;DHT22;6214;48.012;7.862;2023-02-28T09:41:42;13.70;89.80
12303;DHT22;6214;48.012;7.862;2023-02-28T09:44:26;12.80;88.90
12303;DHT22;6214;48.012;7.862;2023-02-28T09:47:05;12.10;90.10
12303;DHT22;6214;48.012;7.862;2023-02-28T09:49:52;10.60;92.30
12303;DHT22;6214;48.012;7.862;2023-02-28T09:52:27;10.00;93.20
12303;DHT22;6214;48.012;7.862;2023-02-28T09:54:55;9.10;94.80
12303;DHT22;6214;48.012;7.862;2023-02-28T09:57:39;8.40;96.30
12303;DHT22;6214;48.012;7.862;2023-02-28T10:03:27;7.50;99.90
12303;DHT22;6214;48.012;7.862;2023-02-28T10:11:23;7.10;99.90
12303;DHT22;6214;48.012;7.862;2023-02-28T10:19:01;7.20;99.90
12303;DHT22;6214;48.012;7.862;2023-02-28T10:21:35;7.20;99.90
12303;DHT22;6214;48.012;7.862;2023-02-28T10:24:11;7.40;99.90
12303;DHT22;6214;48.012;7.862;2023-02-28T10:26:44;7.20;99.90
12303;DHT22;6214;48.012;7.862;2023-02-28T10:29:11;7.20;99.90
12303;DHT22;6214;48.012;7.862;2023-02-28T10:31:39;7.40;99.90
12303;DHT22;6214;48.012;7.862;2023-02-28T10:34:07;7.70;99.90
12303;DHT22;6214;48.012;7.862;2023-02-28T10:36:38;8.20;99.90
12303;DHT22;6214;48.012;7.862;2023-02-28T10:42:01;8.70;99.90
12303;DHT22;6214;48.012;7.862;2023-02-28T10:44:28;8.80;99.90
12303;DHT22;6214;48.012;7.862;2023-02-28T10:46:55;9.00;99.90
12303;DHT22;6214;48.012;7.862;2023-02-28T10:49:27;8.90;99.90
12303;DHT22;6214;48.012;7.862;2023-02-28T10:51:58;8.70;99.90
12303;DHT22;6214;48.012;7.862;2023-02-28T10:54:31;8.70;99.90
12303;DHT22;6214;48.012;7.862;2023-02-28T10:57:21;8.60;99.90
12303;DHT22;6214;48.012;7.862;2023-02-28T10:59:52;8.10;99.90
12303;DHT22;6214;48.012;7.862;2023-02-28T11:02:33;8.10;99.90
12303;DHT22;6214;48.012;7.862;2023-02-28T11:05:02;7.90;99.90
12303;DHT22;6214;48.012;7.862;2023-02-28T11:07:29;7.90;99.90
12303;DHT22;6214;48.012;7.862;2023-02-28T11:10:20;7.80;99.90
12303;DHT22;6214;48.012;7.862;2023-02-28T11:12:48;8.10;99.90
12303;DHT22;6214;48.012;7.862;2023-02-28T11:15:25;8.10;99.90
12303;DHT22;6214;48.012;7.862;2023-02-28T11:20:30;7.50;99.90
12303;DHT22;6214;48.012;7.862;2023-02-28T11:23:01;7.40;99.90
12303;DHT22;6214;48.012;7.862;2023-02-28T11:25:33;7.50;99.90
12303;DHT22;6214;48.012;7.862;2023-02-28T11:28:06;7.50;99.90
12303;DHT22;6214;48.012;7.862;2023-02-28T11:30:42;7.60;99.90
12303;DHT22;6214;48.012;7.862;2023-02-28T11:33:30;7.70;99.90
12303;DHT22;6214;48.012;7.862;2023-02-28T11:36:07;7.60;99.90
12303;DHT22;6214;48.012;7.862;2023-02-28T11:38:36;7.70;99.90
12303;DHT22;6214;48.012;7.862;2023-02-28T11:41:17;7.70;99.90
12303;DHT22;6214;48.012;7.862;2023-02-28T11:43:55;7.80;99.90
12303;DHT22;6214;48.012;7.862;2023-02-28T11:46:41;8.10;99.90
12303;DHT22;6214;48.012;7.862;2023-02-28T11:49:25;8.60;99.90
12303;DHT22;6214;48.012;7.862;2023-02-28T12:02:49;9.20;99.90
12303;DHT22;6214;48.012;7.862;2023-02-28T12:05:36;9.40;99.90
12303;DHT22;6214;48.012;7.862;2023-02-28T12:08:10;9.50;99.90
12303;DHT22;6214;48.012;7.862;2023-02-28T12:13:47;9.10;99.90
12303;DHT22;6214;48.012;7.862;2023-02-28T12:19:25;9.30;99.90
12303;DHT22;6214;48.012;7.862;2023-02-28T12:27:17;9.10;99.90
12303;DHT22;6214;48.012;7.862;2023-02-28T12:32:32;8.70;99.90
12303;DHT22;6214;48.012;7.862;2023-02-28T12:40:21;8.10;99.90
12303;DHT22;6214;48.012;7.862;2023-02-28T12:42:56;7.90;99.90
12303;DHT22;6214;48.012;7.862;2023-02-28T12:48:06;8.00;99.90
12303;DHT22;6214;48.012;7.862;2023-02-28T12:50:35;8.00;99.90
12303;DHT22;6214;48.012;7.862;2023-02-28T12:58:54;7.60;99.90
12303;DHT22;6214;48.012;7.862;2023-02-28T13:04:42;7.80;99.90
12303;DHT22;6214;48.012;7.862;2023-02-28T13:09:53;7.90;99.90
12303;DHT22;6214;48.012;7.862;2023-02-28T13:12:22;8.00;99.90
12303;DHT22;6214;48.012;7.862;2023-02-28T13:14:50;8.20;99.90
12303;DHT22;6214;48.012;7.862;2023-02-28T13:17:20;7.90;99.90
12303;DHT22;6214;48.012;7.862;2023-02-28T13:22:36;7.50;99.90
12303;DHT22;6214;48.012;7.862;2023-02-28T13:27:54;7.30;99.90
12303;DHT22;6214;48.012;7.862;2023-02-28T13:38:53;7.70;99.90
12303;DHT22;6214;48.012;7.862;2023-02-28T13:41:40;7.70;99.90
12303;DHT22;6214;48.012;7.862;2023-02-28T13:44:19;7.80;99.90
12303;DHT22;6214;48.012;7.862;2023-02-28T13:54:53;8.40;99.90
12303;DHT22;6214;48.012;7.862;2023-02-28T14:05:40;8.40;99.90
12303;DHT22;6214;48.012;7.862;2023-02-28T14:08:15;8.40;99.90
12303;DHT22;6214;48.012;7.862;2023-02-28T14:10:45;8.50;99.90
12303;DHT22;6214;48.012;7.862;2023-02-28T14:16:14;8.00;99.90
12303;DHT22;6214;48.012;7.862;2023-02-28T14:18:51;7.80;99.90
12303;DHT22;6214;48.012;7.862;2023-02-28T14:21:30;7.50;99.90
12303;DHT22;6214;48.012;7.862;2023-02-28T14:24:16;7.50;99.90
12303;DHT22;6214;48.012;7.862;2023-02-28T14:37:47;8.30;99.90
12303;DHT22;6214;48.012;7.862;2023-02-28T14:40:41;8.10;99.90
12303;DHT22;6214;48.012;7.862;2023-02-28T14:43:23;7.80;99.90
12303;DHT22;6214;48.012;7.862;2023-02-28T14:45:54;7.80;99.90
12303;DHT22;6214;48.012;7.862;2023-02-28T14:48:22;7.60;99.90
12303;DHT22;6214;48.012;7.862;2023-02-28T14:50:55;7.40;99.90
12303;DHT22;6214;48.012;7.862;2023-02-28T14:53:26;7.40;99.90
12303;DHT22;6214;48.012;7.862;2023-02-28T14:55:54;7.50;99.90
12303;DHT22;6214;48.012;7.862;2023-02-28T14:58:32;7.50;99.90
12303;DHT22;6214;48.012;7.862;2023-02-28T15:01:01;7.30;99.90
12303;DHT22;6214;48.012;7.862;2023-02-28T15:03:35;7.00;99.90
12303;DHT22;6214;48.012;7.862;2023-02-28T15:06:05;6.90;99.90
12303;DHT22;6214;48.012;7.862;2023-02-28T15:08:33;6.70;99.90
12303;DHT22;6214;48.012;7.862;2023-02-28T15:11:06;6.40;99.90
12303;DHT22;6214;48.012;7.862;2023-02-28T15:13:46;6.30;99.90
12303;DHT22;6214;48.012;7.862;2023-02-28T15:16:19;6.30;99.90
12303;DHT22;6214;48.012;7.862;2023-02-28T15:21:20;6.20;99.90
12303;DHT22;6214;48.012;7.862;2023-02-28T15:26:42;6.20;99.90
12303;DHT22;6214;48.012;7.862;2023-02-28T15:29:16;6.10;99.90
12303;DHT22;6214;48.012;7.862;2023-02-28T15:32:02;6.20;99.90
12303;DHT22;6214;48.012;7.862;2023-02-28T15:34:34;6.20;99.90
12303;DHT22;6214;48.012;7.862;2023-02-28T15:37:50;6.30;99.90
12303;DHT22;6214;48.012;7.862;2023-02-28T15:48:30;6.20;99.90
12303;DHT22;6214;48.012;7.862;2023-02-28T15:51:08;6.20;99.90
12303;DHT22;6214;48.012;7.862;2023-02-28T15:53:45;6.20;99.90
12303;DHT22;6214;48.012;7.862;2023-02-28T15:56:24;6.00;99.90
12303;DHT22;6214;48.012;7.862;2023-02-28T15:58:59;6.10;99.90
12303;DHT22;6214;48.012;7.862;2023-02-28T16:01:29;6.00;99.90
12303;DHT22;6214;48.012;7.862;2023-02-28T16:04:02;6.00;99.90
12303;DHT22;6214;48.012;7.862;2023-02-28T16:06:41;6.10;99.90
12303;DHT22;6214;48.012;7.862;2023-02-28T16:09:16;6.00;99.90
12303;DHT22;6214;48.012;7.862;2023-02-28T16:11:51;6.00;99.90
12303;DHT22;6214;48.012;7.862;2023-02-28T16:14:24;6.10;99.90
12303;DHT22;6214;48.012;7.862;2023-02-28T16:16:55;6.00;99.90
12303;DHT22;6214;48.012;7.862;2023-02-28T16:19:23;5.90;99.90
12303;DHT22;6214;48.012;7.862;2023-02-28T16:21:50;5.80;99.90
12303;DHT22;6214;48.012;7.862;2023-02-28T16:24:18;5.70;99.90
12303;DHT22;6214;48.012;7.862;2023-02-28T16:26:49;5.60;99.90
12303;DHT22;6214;48.012;7.862;2023-02-28T16:29:28;5.70;99.90
12303;DHT22;6214;48.012;7.862;2023-02-28T16:31:57;5.80;99.90
12303;DHT22;6214;48.012;7.862;2023-02-28T16:34:24;5.90;99.90
12303;DHT22;6214;48.012;7.862;2023-02-28T16:36:52;5.90;99.90
12303;DHT22;6214;48.012;7.862;2023-02-28T16:39:19;5.80;99.90
12303;DHT22;6214;48.012;7.862;2023-02-28T16:41:50;5.70;99.90
12303;DHT22;6214;48.012;7.862;2023-02-28T16:44:37;5.60;99.90
12303;DHT22;6214;48.012;7.862;2023-02-28T16:47:04;5.50;99.90
12303;DHT22;6214;48.012;7.862;2023-02-28T16:49:31;5.40;99.90
12303;DHT22;6214;48.012;7.862;2023-02-28T16:51:58;5.40;99.90
12303;DHT22;6214;48.012;7.862;2023-02-28T16:54:25;5.40;99.90
12303;DHT22;6214;48.012;7.862;2023-02-28T16:56:53;5.30;99.90
12303;DHT22;6214;48.012;7.862;2023-02-28T16:59:23;5.20;99.90
12303;DHT22;6214;48.012;7.862;2023-02-28T17:01:51;5.20;99.90
12303;DHT22;6214;48.012;7.862;2023-02-28T17:04:19;5.10;99.90
12303;DHT22;6214;48.012;7.862;2023-02-28T17:06:46;5.00;99.90
12303;DHT22;6214;48.012;7.862;2023-02-28T17:09:21;4.90;99.90
12303;DHT22;6214;48.012;7.862;2023-02-28T17:11:56;4.90;99.90
12303;DHT22;6214;48.012;7.862;2023-02-28T17:14:23;4.90;99.90
12303;DHT22;6214;48.012;7.862;2023-02-28T17:16:50;4.80;99.90
12303;DHT22;6214;48.012;7.862;2023-02-28T17:19:17;4.80;99.90
12303;DHT22;6214;48.012;7.862;2023-02-28T17:21:45;4.70;99.90
12303;DHT22;6214;48.012;7.862;2023-02-28T17:24:12;4.50;99.90
12303;DHT22;6214;48.012;7.862;2023-02-28T17:26:45;4.30;99.90
12303;DHT22;6214;48.012;7.862;2023-02-28T17:29:21;4.20;99.90
12303;DHT22;6214;48.012;7.862;2023-02-28T17:31:48;4.10;99.90
12303;DHT22;6214;48.012;7.862;2023-02-28T17:34:16;4.00;99.90
12303;DHT22;6214;48.012;7.862;2023-02-28T17:36:46;3.90;99.90
12303;DHT22;6214;48.012;7.862;2023-02-28T17:39:14;3.90;99.90
12303;DHT22;6214;48.012;7.862;2023-02-28T17:41:42;3.80;99.90
12303;DHT22;6214;48.012;7.862;2023-02-28T17:44:09;3.60;99.90
12303;DHT22;6214;48.012;7.862;2023-02-28T17:46:36;3.50;99.90
12303;DHT22;6214;48.012;7.862;2023-02-28T17:49:03;3.40;99.90
12303;DHT22;6214;48.012;7.862;2023-02-28T17:51:30;3.40;99.90
12303;DHT22;6214;48.012;7.862;2023-02-28T17:53:57;3.40;99.90
12303;DHT22;6214;48.012;7.862;2023-02-28T17:56:25;3.30;99.90
12303;DHT22;6214;48.012;7.862;2023-02-28T17:58:54;3.20;99.90
12303;DHT22;6214;48.012;7.862;2023-02-28T18:01:23;3.00;99.90
12303;DHT22;6214;48.012;7.862;2023-02-28T18:03:52;2.90;99.90
12303;DHT22;6214;48.012;7.862;2023-02-28T18:06:23;3.00;99.90
12303;DHT22;6214;48.012;7.862;2023-02-28T18:08:51;3.00;99.90
12303;DHT22;6214;48.012;7.862;2023-02-28T18:11:20;3.10;99.90
12303;DHT22;6214;48.012;7.862;2023-02-28T18:13:50;3.20;99.90
12303;DHT22;6214;48.012;7.862;2023-02-28T18:16:18;3.10;99.90
12303;DHT22;6214;48.012;7.862;2023-02-28T18:18:46;3.10;99.90
12303;DHT22;6214;48.012;7.862;2023-02-28T18:21:15;3.10;99.90
12303;DHT22;6214;48.012;7.862;2023-02-28T18:23:42;2.90;99.90
12303;DHT22;6214;48.012;7.862;2023-02-28T18:26:19;2.90;99.90
12303;DHT22;6214;48.012;7.862;2023-02-28T18:28:46;2.80;99.90
12303;DHT22;6214;48.012;7.862;2023-02-28T18:31:18;2.80;99.90
12303;DHT22;6214;48.012;7.862;2023-02-28T18:33:50;2.80;99.90
12303;DHT22;6214;48.012;7.862;2023-02-28T18:36:19;2.80;99.90
12303;DHT22;6214;48.012;7.862;2023-02-28T18:38:47;2.70;99.90
12303;DHT22;6214;48.012;7.862;2023-02-28T18:41:18;2.70;99.90
12303;DHT22;6214;48.012;7.862;2023-02-28T18:43:48;2.70;99.90
12303;DHT22;6214;48.012;7.862;2023-02-28T18:46:18;2.60;99.90
12303;DHT22;6214;48.012;7.862;2023-02-28T18:51:16;2.40;99.90
12303;DHT22;6214;48.012;7.862;2023-02-28T18:53:44;2.40;99.90
12303;DHT22;6214;48.012;7.862;2023-02-28T18:56:13;2.40;99.90
12303;DHT22;6214;48.012;7.862;2023-02-28T18:58:40;2.20;99.90
12303;DHT22;6214;48.012;7.862;2023-02-28T19:01:28;2.20;99.90
12303;DHT22;6214;48.012;7.862;2023-02-28T19:03:58;2.10;99.90
12303;DHT22;6214;48.012;7.862;2023-02-28T19:06:30;2.10;99.90
12303;DHT22;6214;48.012;7.862;2023-02-28T19:08:59;2.10;99.90
12303;DHT22;6214;48.012;7.862;2023-02-28T19:11:27;2.10;99.90